sensor_id;sensor_type;location;lat;lon;timestamp;temperature;humidity
29731;DHT22;16639;51.488;0.152;2023-05-20T00:02:20;12.20;99.90
29731;DHT22;16639;51.488;0.152;2023-05-20T00:04:48;12.20;99.90
29731;DHT22;16639;51.488;0.152;2023-05-20T00:07:15;12.20;99.90
29731;DHT22;16639;51.488;0.152;2023-05-20T00:09:43;12.10;99.90
29731;DHT22;16639;51.488;0.152;2023-05-20T00:12:10;12.00;99.90
29731;DHT22;16639;51.488;0.152;2023-05-20T00:14:38;12.00;99.90
29731;DHT22;16639;51.488;0.152;2023-05-20T00:17:06;12.00;99.90
29731;DHT22;16639;51.488;0.152;2023-05-20T00:19:34;11.90;99.90
29731;DHT22;16639;51.488;0.152;2023-05-20T00:22:01;11.90;99.90
29731;DHT22;16639;51.488;0.152;2023-05-20T00:24:30;11.90;99.90
29731;DHT22;16639;51.488;0.152;2023-05-20T00:26:58;11.80;99.90
29731;DHT22;16639;51.488;0.152;2023-05-20T00:29:26;11.80;99.90
29731;DHT22;16639;51.488;0.152;2023-05-20T00:31:54;11.80;99.90
29731;DHT22;16639;51.488;0.152;2023-05-20T00:34:22;11.70;99.90
29731;DHT22;16639;51.488;0.152;2023-05-20T00:36:49;11.60;99.90
29731;DHT22;16639;51.488;0.152;2023-05-20T00:39:17;11.60;99.90
29731;DHT22;16639;51.488;0.152;2023-05-20T00:41:45;11.60;99.90
29731;DHT22;16639;51.488;0.152;2023-05-20T00:44:12;11.60;99.90
29731;DHT22;16639;51.488;0.152;2023-05-20T00:46:40;11.60;99.90
29731;DHT22;16639;51.488;0.152;2023-05-20T00:49:08;11.50;99.90
29731;DHT22;16639;51.488;0.152;2023-05-20T00:51:35;11.70;99.90
29731;DHT22;16639;51.488;0.152;2023-05-20T00:54:04;11.50;99.90
29731;DHT22;16639;51.488;0.152;2023-05-20T00:56:32;11.50;99.90
29731;DHT22;16639;51.488;0.152;2023-05-20T00:59:01;11.40;99.90
29731;DHT22;16639;51.488;0.152;2023-05-20T01:01:28;11.40;99.90
29731;DHT22;16639;51.488;0.152;2023-05-20T01:03:58;11.40;99.90
29731;DHT22;16639;51.488;0.152;2023-05-20T01:06:26;11.40;99.90
29731;DHT22;16639;51.488;0.152;2023-05-20T01:08:54;11.30;99.90
29731;DHT22;16639;51.488;0.152;2023-05-20T01:11:30;12.70;99.90
29731;DHT22;16639;51.488;0.152;2023-05-20T01:14:04;11.30;99.90
29731;DHT22;16639;51.488;0.152;2023-05-20T01:16:34;11.30;99.90
29731;DHT22;16639;51.488;0.152;2023-05-20T01:19:03;11.30;99.90
29731;DHT22;16639;51.488;0.152;2023-05-20T01:21:34;11.30;99.90
29731;DHT22;16639;51.488;0.152;2023-05-20T01:24:02;11.20;99.90
29731;DHT22;16639;51.488;0.152;2023-05-20T01:26:32;11.20;99.90
29731;DHT22;16639;51.488;0.152;2023-05-20T01:28:59;11.20;99.90
29731;DHT22;16639;51.488;0.152;2023-05-20T01:31:32;11.20;99.90
29731;DHT22;16639;51.488;0.152;2023-05-20T01:34:05;11.20;99.90
29731;DHT22;16639;51.488;0.152;2023-05-20T01:36:32;11.20;99.90
29731;DHT22;16639;51.488;0.152;2023-05-20T01:39:01;11.20;99.90
29731;DHT22;16639;51.488;0.152;2023-05-20T01:41:30;11.20;99.90
29731;DHT22;16639;51.488;0.152;2023-05-20T01:43:58;11.10;99.90
29731;DHT22;16639;51.488;0.152;2023-05-20T01:46:26;11.20;99.90
29731;DHT22;16639;51.488;0.152;2023-05-20T01:48:53;11.20;99.90
29731;DHT22;16639;51.488;0.152;2023-05-20T01:51:21;11.20;99.90
29731;DHT22;16639;51.488;0.152;2023-05-20T01:53:48;11.20;99.90
29731;DHT22;16639;51.488;0.152;2023-05-20T01:56:16;11.20;99.90
29731;DHT22;16639;51.488;0.152;2023-05-20T01:58:43;11.20;99.90
29731;DHT22;16639;51.488;0.152;2023-05-20T02:01:12;11.20;99.90
29731;DHT22;16639;51.488;0.152;2023-05-20T02:03:39;11.20;99.90
29731;DHT22;16639;51.488;0.152;2023-05-20T02:06:07;11.20;99.90
29731;DHT22;16639;51.488;0.152;2023-05-20T02:08:36;11.10;99.90
29731;DHT22;16639;51.488;0.152;2023-05-20T02:11:04;11.50;99.90
29731;DHT22;16639;51.488;0.152;2023-05-20T02:13:31;11.10;99.90
29731;DHT22;16639;51.488;0.152;2023-05-20T02:15:59;11.10;99.90
29731;DHT22;16639;51.488;0.152;2023-05-20T02:18:26;11.10;99.90
29731;DHT22;16639;51.488;0.152;2023-05-20T02:20:54;11.10;99.90
29731;DHT22;16639;51.488;0.152;2023-05-20T02:23:21;11.00;99.90
29731;DHT22;16639;51.488;0.152;2023-05-20T02:25:49;11.00;99.90
29731;DHT22;16639;51.488;0.152;2023-05-20T02:28:16;11.00;99.90
29731;DHT22;16639;51.488;0.152;2023-05-20T02:30:44;11.00;99.90
29731;DHT22;16639;51.488;0.152;2023-05-20T02:33:11;11.00;99.90
29731;DHT22;16639;51.488;0.152;2023-05-20T02:35:40;11.00;99.90
29731;DHT22;16639;51.488;0.152;2023-05-20T02:38:07;10.90;99.90
29731;DHT22;16639;51.488;0.152;2023-05-20T02:40:35;10.90;99.90
29731;DHT22;16639;51.488;0.152;2023-05-20T02:43:04;11.50;99.90
29731;DHT22;16639;51.488;0.152;2023-05-20T02:45:32;11.00;99.90
29731;DHT22;16639;51.488;0.152;2023-05-20T02:47:59;10.90;99.90
29731;DHT22;16639;51.488;0.152;2023-05-20T02:50:27;10.90;99.90
29731;DHT22;16639;51.488;0.152;2023-05-20T02:52:55;10.90;99.90
29731;DHT22;16639;51.488;0.152;2023-05-20T02:55:23;10.90;99.90
29731;DHT22;16639;51.488;0.152;2023-05-20T02:57:50;10.80;99.90
29731;DHT22;16639;51.488;0.152;2023-05-20T03:00:18;10.80;99.90
29731;DHT22;16639;51.488;0.152;2023-05-20T03:02:47;10.70;99.90
29731;DHT22;16639;51.488;0.152;2023-05-20T03:05:14;10.70;99.90
29731;DHT22;16639;51.488;0.152;2023-05-20T03:07:42;10.70;99.90
29731;DHT22;16639;51.488;0.152;2023-05-20T03:10:10;10.70;99.90
29731;DHT22;16639;51.488;0.152;2023-05-20T03:12:37;10.60;99.90
29731;DHT22;16639;51.488;0.152;2023-05-20T03:15:05;10.50;99.90
29731;DHT22;16639;51.488;0.152;2023-05-20T03:17:33;10.60;99.90
29731;DHT22;16639;51.488;0.152;2023-05-20T03:20:00;10.60;99.90
29731;DHT22;16639;51.488;0.152;2023-05-20T03:22:28;10.70;99.90
29731;DHT22;16639;51.488;0.152;2023-05-20T03:24:55;10.70;99.90
29731;DHT22;16639;51.488;0.152;2023-05-20T03:27:23;10.20;99.90
29731;DHT22;16639;51.488;0.152;2023-05-20T03:29:52;9.70;99.90
29731;DHT22;16639;51.488;0.152;2023-05-20T03:32:20;10.70;99.90
29731;DHT22;16639;51.488;0.152;2023-05-20T03:34:48;10.70;99.90
29731;DHT22;16639;51.488;0.152;2023-05-20T03:37:15;10.70;99.90
29731;DHT22;16639;51.488;0.152;2023-05-20T03:39:43;10.70;99.90
29731;DHT22;16639;51.488;0.152;2023-05-20T03:42:10;10.70;99.90
29731;DHT22;16639;51.488;0.152;2023-05-20T03:44:38;10.70;99.90
29731;DHT22;16639;51.488;0.152;2023-05-20T03:47:05;10.70;99.90
29731;DHT22;16639;51.488;0.152;2023-05-20T03:49:33;10.80;99.90
29731;DHT22;16639;51.488;0.152;2023-05-20T03:54:46;10.70;99.90
29731;DHT22;16639;51.488;0.152;2023-05-20T03:57:15;10.80;99.90
29731;DHT22;16639;51.488;0.152;2023-05-20T03:59:42;10.80;99.90
29731;DHT22;16639;51.488;0.152;2023-05-20T04:02:10;10.80;99.90
29731;DHT22;16639;51.488;0.152;2023-05-20T04:04:39;10.80;99.90
29731;DHT22;16639;51.488;0.152;2023-05-20T04:07:09;9.50;99.90
29731;DHT22;16639;51.488;0.152;2023-05-20T04:09:37;10.80;99.90
29731;DHT22;16639;51.488;0.152;2023-05-20T04:12:05;10.90;99.90
29731;DHT22;16639;51.488;0.152;2023-05-20T04:14:33;10.90;99.90
29731;DHT22;16639;51.488;0.152;2023-05-20T04:17:05;10.90;99.90
29731;DHT22;16639;51.488;0.152;2023-05-20T04:19:32;10.90;99.90
29731;DHT22;16639;51.488;0.152;2023-05-20T04:22:00;10.90;99.90
29731;DHT22;16639;51.488;0.152;2023-05-20T04:24:28;10.90;99.90
29731;DHT22;16639;51.488;0.152;2023-05-20T04:26:55;10.90;99.90
29731;DHT22;16639;51.488;0.152;2023-05-20T04:29:23;10.90;99.90
29731;DHT22;16639;51.488;0.152;2023-05-20T04:31:50;10.90;99.90
29731;DHT22;16639;51.488;0.152;2023-05-20T04:34:19;10.90;99.90
29731;DHT22;16639;51.488;0.152;2023-05-20T04:36:53;10.90;99.90
29731;DHT22;16639;51.488;0.152;2023-05-20T04:39:20;11.00;99.90
29731;DHT22;16639;51.488;0.152;2023-05-20T04:41:48;10.90;99.90
29731;DHT22;16639;51.488;0.152;2023-05-20T04:44:16;10.90;99.90
29731;DHT22;16639;51.488;0.152;2023-05-20T04:46:43;11.00;99.90
29731;DHT22;16639;51.488;0.152;2023-05-20T04:49:12;11.00;99.90
29731;DHT22;16639;51.488;0.152;2023-05-20T04:51:39;11.00;99.90
29731;DHT22;16639;51.488;0.152;2023-05-20T04:54:07;11.00;99.90
29731;DHT22;16639;51.488;0.152;2023-05-20T04:56:36;11.10;99.90
29731;DHT22;16639;51.488;0.152;2023-05-20T04:59:04;11.10;99.90
29731;DHT22;16639;51.488;0.152;2023-05-20T05:01:31;10.80;99.90
29731;DHT22;16639;51.488;0.152;2023-05-20T05:04:00;11.10;99.90
29731;DHT22;16639;51.488;0.152;2023-05-20T05:06:28;11.10;99.90
29731;DHT22;16639;51.488;0.152;2023-05-20T05:08:55;11.10;99.90
29731;DHT22;16639;51.488;0.152;2023-05-20T05:11:23;11.10;99.90
29731;DHT22;16639;51.488;0.152;2023-05-20T05:13:51;11.20;99.90
29731;DHT22;16639;51.488;0.152;2023-05-20T05:16:18;11.20;99.90
29731;DHT22;16639;51.488;0.152;2023-05-20T05:18:45;11.20;99.90
29731;DHT22;16639;51.488;0.152;2023-05-20T05:21:13;11.20;99.90
29731;DHT22;16639;51.488;0.152;2023-05-20T05:23:42;11.20;99.90
29731;DHT22;16639;51.488;0.152;2023-05-20T05:26:09;11.30;99.90
29731;DHT22;16639;51.488;0.152;2023-05-20T05:28:37;11.30;99.90
29731;DHT22;16639;51.488;0.152;2023-05-20T05:31:04;11.30;99.90
29731;DHT22;16639;51.488;0.152;2023-05-20T05:33:33;11.30;99.90
29731;DHT22;16639;51.488;0.152;2023-05-20T05:36:01;11.30;99.90
29731;DHT22;16639;51.488;0.152;2023-05-20T05:38:28;11.30;99.90
29731;DHT22;16639;51.488;0.152;2023-05-20T05:40:56;11.30;99.90
29731;DHT22;16639;51.488;0.152;2023-05-20T05:43:24;11.40;99.90
29731;DHT22;16639;51.488;0.152;2023-05-20T05:45:52;11.40;99.90
29731;DHT22;16639;51.488;0.152;2023-05-20T05:48:21;11.40;99.90
29731;DHT22;16639;51.488;0.152;2023-05-20T05:50:52;11.40;99.90
29731;DHT22;16639;51.488;0.152;2023-05-20T05:53:20;11.40;99.90
29731;DHT22;16639;51.488;0.152;2023-05-20T05:55:49;11.40;99.90
29731;DHT22;16639;51.488;0.152;2023-05-20T05:58:17;11.40;99.90
29731;DHT22;16639;51.488;0.152;2023-05-20T06:00:44;11.50;99.90
29731;DHT22;16639;51.488;0.152;2023-05-20T06:03:11;11.60;99.90
29731;DHT22;16639;51.488;0.152;2023-05-20T06:05:39;11.70;99.90
29731;DHT22;16639;51.488;0.152;2023-05-20T06:08:06;11.60;99.90
29731;DHT22;16639;51.488;0.152;2023-05-20T06:10:34;11.70;99.90
29731;DHT22;16639;51.488;0.152;2023-05-20T06:13:02;11.80;99.90
29731;DHT22;16639;51.488;0.152;2023-05-20T06:15:29;11.70;99.90
29731;DHT22;16639;51.488;0.152;2023-05-20T06:17:57;11.80;99.90
29731;DHT22;16639;51.488;0.152;2023-05-20T06:20:25;11.80;99.90
29731;DHT22;16639;51.488;0.152;2023-05-20T06:22:54;11.90;99.90
29731;DHT22;16639;51.488;0.152;2023-05-20T06:25:22;12.00;99.90
29731;DHT22;16639;51.488;0.152;2023-05-20T06:27:50;12.10;99.90
29731;DHT22;16639;51.488;0.152;2023-05-20T06:30:17;12.10;99.90
29731;DHT22;16639;51.488;0.152;2023-05-20T06:32:45;12.10;99.90
29731;DHT22;16639;51.488;0.152;2023-05-20T06:35:12;12.00;99.90
29731;DHT22;16639;51.488;0.152;2023-05-20T06:37:40;12.10;99.90
29731;DHT22;16639;51.488;0.152;2023-05-20T06:40:08;12.10;99.90
29731;DHT22;16639;51.488;0.152;2023-05-20T06:42:35;12.10;99.90
29731;DHT22;16639;51.488;0.152;2023-05-20T06:45:04;12.20;99.90
29731;DHT22;16639;51.488;0.152;2023-05-20T06:47:32;12.20;99.90
29731;DHT22;16639;51.488;0.152;2023-05-20T06:49:59;12.30;99.90
29731;DHT22;16639;51.488;0.152;2023-05-20T06:52:27;12.30;99.90
29731;DHT22;16639;51.488;0.152;2023-05-20T06:54:56;12.30;99.90
29731;DHT22;16639;51.488;0.152;2023-05-20T06:57:23;12.40;99.90
29731;DHT22;16639;51.488;0.152;2023-05-20T06:59:51;12.40;99.90
29731;DHT22;16639;51.488;0.152;2023-05-20T07:02:19;12.40;99.90
29731;DHT22;16639;51.488;0.152;2023-05-20T07:04:47;12.60;99.90
29731;DHT22;16639;51.488;0.152;2023-05-20T07:07:15;12.60;99.90
29731;DHT22;16639;51.488;0.152;2023-05-20T07:09:44;12.60;99.90
29731;DHT22;16639;51.488;0.152;2023-05-20T07:12:11;12.70;99.90
29731;DHT22;16639;51.488;0.152;2023-05-20T07:14:39;12.80;99.90
29731;DHT22;16639;51.488;0.152;2023-05-20T07:17:06;12.90;99.90
29731;DHT22;16639;51.488;0.152;2023-05-20T07:19:34;12.90;99.90
29731;DHT22;16639;51.488;0.152;2023-05-20T07:22:01;13.00;99.90
29731;DHT22;16639;51.488;0.152;2023-05-20T07:24:29;13.10;99.90
29731;DHT22;16639;51.488;0.152;2023-05-20T07:26:57;13.10;99.90
29731;DHT22;16639;51.488;0.152;2023-05-20T07:29:24;13.20;99.90
29731;DHT22;16639;51.488;0.152;2023-05-20T07:31:52;13.20;99.90
29731;DHT22;16639;51.488;0.152;2023-05-20T07:34:20;13.30;99.90
29731;DHT22;16639;51.488;0.152;2023-05-20T07:36:48;13.20;99.90
29731;DHT22;16639;51.488;0.152;2023-05-20T07:39:17;13.30;99.90
29731;DHT22;16639;51.488;0.152;2023-05-20T07:41:45;13.30;99.90
29731;DHT22;16639;51.488;0.152;2023-05-20T07:44:13;13.40;99.90
29731;DHT22;16639;51.488;0.152;2023-05-20T07:46:40;13.40;99.90
29731;DHT22;16639;51.488;0.152;2023-05-20T07:49:08;13.90;99.90
29731;DHT22;16639;51.488;0.152;2023-05-20T07:51:35;13.50;99.90
29731;DHT22;16639;51.488;0.152;2023-05-20T07:54:03;13.50;99.90
29731;DHT22;16639;51.488;0.152;2023-05-20T07:56:30;13.50;99.90
29731;DHT22;16639;51.488;0.152;2023-05-20T07:58:59;13.60;99.90
29731;DHT22;16639;51.488;0.152;2023-05-20T08:01:27;13.60;99.90
29731;DHT22;16639;51.488;0.152;2023-05-20T08:03:55;13.10;99.90
29731;DHT22;16639;51.488;0.152;2023-05-20T08:06:23;13.70;99.90
29731;DHT22;16639;51.488;0.152;2023-05-20T08:08:53;13.70;99.90
29731;DHT22;16639;51.488;0.152;2023-05-20T08:11:20;13.70;99.90
29731;DHT22;16639;51.488;0.152;2023-05-20T08:13:48;13.70;99.90
29731;DHT22;16639;51.488;0.152;2023-05-20T08:16:16;13.70;99.90
29731;DHT22;16639;51.488;0.152;2023-05-20T08:18:45;13.70;99.90
29731;DHT22;16639;51.488;0.152;2023-05-20T08:21:13;13.80;99.90
29731;DHT22;16639;51.488;0.152;2023-05-20T08:23:41;13.80;99.90
29731;DHT22;16639;51.488;0.152;2023-05-20T08:26:08;13.80;99.90
29731;DHT22;16639;51.488;0.152;2023-05-20T08:28:35;13.90;99.90
29731;DHT22;16639;51.488;0.152;2023-05-20T08:31:06;13.90;99.90
29731;DHT22;16639;51.488;0.152;2023-05-20T08:33:33;13.90;99.90
29731;DHT22;16639;51.488;0.152;2023-05-20T08:36:01;13.80;99.90
29731;DHT22;16639;51.488;0.152;2023-05-20T08:38:29;13.80;99.90
29731;DHT22;16639;51.488;0.152;2023-05-20T08:40:56;13.80;99.90
29731;DHT22;16639;51.488;0.152;2023-05-20T08:43:25;13.80;99.90
29731;DHT22;16639;51.488;0.152;2023-05-20T08:45:53;13.80;99.90
29731;DHT22;16639;51.488;0.152;2023-05-20T08:48:23;13.80;99.90
29731;DHT22;16639;51.488;0.152;2023-05-20T08:50:52;13.80;99.90
29731;DHT22;16639;51.488;0.152;2023-05-20T08:53:21;13.80;99.90
29731;DHT22;16639;51.488;0.152;2023-05-20T08:55:53;13.80;99.90
29731;DHT22;16639;51.488;0.152;2023-05-20T08:58:28;13.80;99.90
29731;DHT22;16639;51.488;0.152;2023-05-20T09:00:56;13.90;99.90
29731;DHT22;16639;51.488;0.152;2023-05-20T09:03:25;13.90;99.90
29731;DHT22;16639;51.488;0.152;2023-05-20T09:05:52;14.00;99.90
29731;DHT22;16639;51.488;0.152;2023-05-20T09:08:24;14.00;99.90
29731;DHT22;16639;51.488;0.152;2023-05-20T09:10:54;14.10;99.90
29731;DHT22;16639;51.488;0.152;2023-05-20T09:13:22;14.20;99.90
29731;DHT22;16639;51.488;0.152;2023-05-20T09:15:50;14.20;99.90
29731;DHT22;16639;51.488;0.152;2023-05-20T09:18:17;14.30;99.90
29731;DHT22;16639;51.488;0.152;2023-05-20T09:20:49;14.40;99.90
29731;DHT22;16639;51.488;0.152;2023-05-20T09:23:20;14.50;99.90
29731;DHT22;16639;51.488;0.152;2023-05-20T09:25:52;14.20;99.90
29731;DHT22;16639;51.488;0.152;2023-05-20T09:28:22;14.60;99.90
29731;DHT22;16639;51.488;0.152;2023-05-20T09:30:58;14.60;99.90
29731;DHT22;16639;51.488;0.152;2023-05-20T09:33:30;14.70;99.90
29731;DHT22;16639;51.488;0.152;2023-05-20T09:36:03;14.80;99.90
29731;DHT22;16639;51.488;0.152;2023-05-20T09:38:36;14.80;99.90
29731;DHT22;16639;51.488;0.152;2023-05-20T09:41:09;14.90;99.90
29731;DHT22;16639;51.488;0.152;2023-05-20T09:43:39;14.90;99.90
29731;DHT22;16639;51.488;0.152;2023-05-20T09:46:06;15.00;99.90
29731;DHT22;16639;51.488;0.152;2023-05-20T09:48:35;15.00;99.90
29731;DHT22;16639;51.488;0.152;2023-05-20T09:51:05;15.10;99.90
29731;DHT22;16639;51.488;0.152;2023-05-20T09:53:34;15.40;99.90
29731;DHT22;16639;51.488;0.152;2023-05-20T09:56:04;15.10;99.90
29731;DHT22;16639;51.488;0.152;2023-05-20T09:58:33;15.20;99.90
29731;DHT22;16639;51.488;0.152;2023-05-20T10:01:02;15.30;99.90
29731;DHT22;16639;51.488;0.152;2023-05-20T10:03:29;15.30;99.90
29731;DHT22;16639;51.488;0.152;2023-05-20T10:08:45;15.40;99.90
29731;DHT22;16639;51.488;0.152;2023-05-20T10:11:42;15.50;99.90
29731;DHT22;16639;51.488;0.152;2023-05-20T10:14:37;15.60;99.90
29731;DHT22;16639;51.488;0.152;2023-05-20T10:17:23;15.70;99.90
29731;DHT22;16639;51.488;0.152;2023-05-20T10:19:57;15.80;99.90
29731;DHT22;16639;51.488;0.152;2023-05-20T10:22:29;15.90;99.90
29731;DHT22;16639;51.488;0.152;2023-05-20T10:24:59;16.00;99.90
29731;DHT22;16639;51.488;0.152;2023-05-20T10:27:27;16.10;99.90
29731;DHT22;16639;51.488;0.152;2023-05-20T10:29:55;16.10;99.90
29731;DHT22;16639;51.488;0.152;2023-05-20T10:32:31;16.20;99.90
29731;DHT22;16639;51.488;0.152;2023-05-20T10:35:04;16.20;99.90
29731;DHT22;16639;51.488;0.152;2023-05-20T10:37:42;16.20;99.90
29731;DHT22;16639;51.488;0.152;2023-05-20T10:40:12;16.50;99.90
29731;DHT22;16639;51.488;0.152;2023-05-20T10:42:41;16.20;99.90
29731;DHT22;16639;51.488;0.152;2023-05-20T10:45:09;16.20;99.90
29731;DHT22;16639;51.488;0.152;2023-05-20T10:47:52;16.30;99.90
29731;DHT22;16639;51.488;0.152;2023-05-20T10:50:32;16.40;99.90
29731;DHT22;16639;51.488;0.152;2023-05-20T10:53:04;16.50;99.90
29731;DHT22;16639;51.488;0.152;2023-05-20T10:55:37;16.50;99.90
29731;DHT22;16639;51.488;0.152;2023-05-20T10:58:05;16.50;99.90
29731;DHT22;16639;51.488;0.152;2023-05-20T11:00:36;16.50;99.90
29731;DHT22;16639;51.488;0.152;2023-05-20T11:03:05;16.50;99.90
29731;DHT22;16639;51.488;0.152;2023-05-20T11:05:34;16.60;99.90
29731;DHT22;16639;51.488;0.152;2023-05-20T11:08:06;16.70;99.90
29731;DHT22;16639;51.488;0.152;2023-05-20T11:10:50;16.60;99.90
29731;DHT22;16639;51.488;0.152;2023-05-20T11:13:18;16.70;99.90
29731;DHT22;16639;51.488;0.152;2023-05-20T11:15:48;16.70;99.90
29731;DHT22;16639;51.488;0.152;2023-05-20T11:18:15;16.80;99.90
29731;DHT22;16639;51.488;0.152;2023-05-20T11:20:45;16.80;99.90
29731;DHT22;16639;51.488;0.152;2023-05-20T11:23:14;16.80;99.90
29731;DHT22;16639;51.488;0.152;2023-05-20T11:25:42;16.70;99.90
29731;DHT22;16639;51.488;0.152;2023-05-20T11:28:12;16.80;99.90
29731;DHT22;16639;51.488;0.152;2023-05-20T11:30:44;16.90;99.90
29731;DHT22;16639;51.488;0.152;2023-05-20T11:33:12;16.90;99.90
29731;DHT22;16639;51.488;0.152;2023-05-20T11:35:52;17.00;99.90
29731;DHT22;16639;51.488;0.152;2023-05-20T11:38:20;17.10;99.90
29731;DHT22;16639;51.488;0.152;2023-05-20T11:40:52;17.10;99.90
29731;DHT22;16639;51.488;0.152;2023-05-20T11:43:22;17.10;99.90
29731;DHT22;16639;51.488;0.152;2023-05-20T11:45:54;17.20;99.90
29731;DHT22;16639;51.488;0.152;2023-05-20T11:48:23;17.00;99.90
29731;DHT22;16639;51.488;0.152;2023-05-20T11:50:54;17.20;99.90
29731;DHT22;16639;51.488;0.152;2023-05-20T11:53:23;17.30;99.90
29731;DHT22;16639;51.488;0.152;2023-05-20T11:55:58;17.20;99.90
29731;DHT22;16639;51.488;0.152;2023-05-20T11:58:30;17.20;99.90
29731;DHT22;16639;51.488;0.152;2023-05-20T12:00:58;17.20;99.90
29731;DHT22;16639;51.488;0.152;2023-05-20T12:03:45;17.20;99.90
29731;DHT22;16639;51.488;0.152;2023-05-20T12:06:13;17.30;99.90
29731;DHT22;16639;51.488;0.152;2023-05-20T12:08:40;17.40;99.90
29731;DHT22;16639;51.488;0.152;2023-05-20T12:11:08;17.40;99.90
29731;DHT22;16639;51.488;0.152;2023-05-20T12:13:35;17.50;99.90
29731;DHT22;16639;51.488;0.152;2023-05-20T12:16:03;17.50;99.90
29731;DHT22;16639;51.488;0.152;2023-05-20T12:18:34;17.50;99.90
29731;DHT22;16639;51.488;0.152;2023-05-20T12:21:01;17.60;99.90
29731;DHT22;16639;51.488;0.152;2023-05-20T12:23:29;17.60;99.90
29731;DHT22;16639;51.488;0.152;2023-05-20T12:26:00;17.70;99.90
29731;DHT22;16639;51.488;0.152;2023-05-20T12:28:28;17.70;99.90
29731;DHT22;16639;51.488;0.152;2023-05-20T12:30:55;17.70;99.90
29731;DHT22;16639;51.488;0.152;2023-05-20T12:33:22;17.70;99.90
29731;DHT22;16639;51.488;0.152;2023-05-20T12:35:50;17.60;99.90
29731;DHT22;16639;51.488;0.152;2023-05-20T12:38:17;17.60;99.90
29731;DHT22;16639;51.488;0.152;2023-05-20T12:40:45;17.60;99.90
29731;DHT22;16639;51.488;0.152;2023-05-20T12:43:12;17.70;99.90
29731;DHT22;16639;51.488;0.152;2023-05-20T12:45:40;17.90;99.90
29731;DHT22;16639;51.488;0.152;2023-05-20T12:48:07;17.90;99.90
29731;DHT22;16639;51.488;0.152;2023-05-20T12:50:35;17.90;99.90
29731;DHT22;16639;51.488;0.152;2023-05-20T12:53:02;17.90;99.90
29731;DHT22;16639;51.488;0.152;2023-05-20T12:55:30;17.80;99.90
29731;DHT22;16639;51.488;0.152;2023-05-20T12:57:57;17.90;99.90
29731;DHT22;16639;51.488;0.152;2023-05-20T13:00:25;18.00;99.90
29731;DHT22;16639;51.488;0.152;2023-05-20T13:02:52;18.20;99.90
29731;DHT22;16639;51.488;0.152;2023-05-20T13:05:21;18.30;99.90
29731;DHT22;16639;51.488;0.152;2023-05-20T13:07:48;18.40;99.90
29731;DHT22;16639;51.488;0.152;2023-05-20T13:10:17;18.40;99.90
29731;DHT22;16639;51.488;0.152;2023-05-20T13:12:46;19.10;99.90
29731;DHT22;16639;51.488;0.152;2023-05-20T13:15:14;18.20;99.90
29731;DHT22;16639;51.488;0.152;2023-05-20T13:17:42;18.10;99.90
29731;DHT22;16639;51.488;0.152;2023-05-20T13:20:10;18.10;99.90
29731;DHT22;16639;51.488;0.152;2023-05-20T13:22:38;18.20;99.90
29731;DHT22;16639;51.488;0.152;2023-05-20T13:25:05;18.10;99.90
29731;DHT22;16639;51.488;0.152;2023-05-20T13:27:33;18.20;99.90
29731;DHT22;16639;51.488;0.152;2023-05-20T13:30:00;18.10;99.90
29731;DHT22;16639;51.488;0.152;2023-05-20T13:32:28;18.10;99.90
29731;DHT22;16639;51.488;0.152;2023-05-20T13:34:56;18.10;99.90
29731;DHT22;16639;51.488;0.152;2023-05-20T13:37:25;18.10;99.90
29731;DHT22;16639;51.488;0.152;2023-05-20T13:39:52;18.10;99.90
29731;DHT22;16639;51.488;0.152;2023-05-20T13:42:20;18.20;99.90
29731;DHT22;16639;51.488;0.152;2023-05-20T13:44:47;18.20;99.90
29731;DHT22;16639;51.488;0.152;2023-05-20T13:47:15;18.30;99.90
29731;DHT22;16639;51.488;0.152;2023-05-20T13:49:42;18.20;99.90
29731;DHT22;16639;51.488;0.152;2023-05-20T13:52:10;18.20;99.90
29731;DHT22;16639;51.488;0.152;2023-05-20T13:54:37;18.20;99.90
29731;DHT22;16639;51.488;0.152;2023-05-20T13:57:05;18.20;99.90
29731;DHT22;16639;51.488;0.152;2023-05-20T13:59:34;18.20;99.90
29731;DHT22;16639;51.488;0.152;2023-05-20T14:02:01;18.20;99.90
29731;DHT22;16639;51.488;0.152;2023-05-20T14:04:29;18.10;99.90
29731;DHT22;16639;51.488;0.152;2023-05-20T14:07:05;18.00;99.90
29731;DHT22;16639;51.488;0.152;2023-05-20T14:09:35;18.50;99.90
29731;DHT22;16639;51.488;0.152;2023-05-20T14:12:04;18.10;99.90
29731;DHT22;16639;51.488;0.152;2023-05-20T14:14:31;18.30;99.90
29731;DHT22;16639;51.488;0.152;2023-05-20T14:16:59;18.10;99.90
29731;DHT22;16639;51.488;0.152;2023-05-20T14:19:27;18.20;99.90
29731;DHT22;16639;51.488;0.152;2023-05-20T14:21:55;18.20;99.90
29731;DHT22;16639;51.488;0.152;2023-05-20T14:24:24;18.30;99.90
29731;DHT22;16639;51.488;0.152;2023-05-20T14:26:52;18.30;99.90
29731;DHT22;16639;51.488;0.152;2023-05-20T14:29:19;18.30;99.90
29731;DHT22;16639;51.488;0.152;2023-05-20T14:31:47;18.30;99.90
29731;DHT22;16639;51.488;0.152;2023-05-20T14:34:14;18.30;99.90
29731;DHT22;16639;51.488;0.152;2023-05-20T14:36:42;18.20;99.90
29731;DHT22;16639;51.488;0.152;2023-05-20T14:39:10;18.20;99.90
29731;DHT22;16639;51.488;0.152;2023-05-20T14:41:37;18.00;99.90
29731;DHT22;16639;51.488;0.152;2023-05-20T14:44:05;18.40;99.90
29731;DHT22;16639;51.488;0.152;2023-05-20T14:46:32;18.40;99.90
29731;DHT22;16639;51.488;0.152;2023-05-20T14:49:00;18.40;99.90
29731;DHT22;16639;51.488;0.152;2023-05-20T14:51:28;18.40;99.90
29731;DHT22;16639;51.488;0.152;2023-05-20T14:53:55;18.30;99.90
29731;DHT22;16639;51.488;0.152;2023-05-20T14:56:23;18.30;99.90
29731;DHT22;16639;51.488;0.152;2023-05-20T14:58:50;18.20;99.90
29731;DHT22;16639;51.488;0.152;2023-05-20T15:01:18;18.20;99.90
29731;DHT22;16639;51.488;0.152;2023-05-20T15:03:46;18.30;99.90
29731;DHT22;16639;51.488;0.152;2023-05-20T15:06:13;18.40;99.90
29731;DHT22;16639;51.488;0.152;2023-05-20T15:08:41;18.40;99.90
29731;DHT22;16639;51.488;0.152;2023-05-20T15:11:08;18.40;99.90
29731;DHT22;16639;51.488;0.152;2023-05-20T15:13:36;18.30;99.90
29731;DHT22;16639;51.488;0.152;2023-05-20T15:16:06;18.20;99.90
29731;DHT22;16639;51.488;0.152;2023-05-20T15:18:34;18.20;99.90
29731;DHT22;16639;51.488;0.152;2023-05-20T15:21:02;18.20;99.90
29731;DHT22;16639;51.488;0.152;2023-05-20T15:23:29;18.30;99.90
29731;DHT22;16639;51.488;0.152;2023-05-20T15:32:26;18.50;99.90
29731;DHT22;16639;51.488;0.152;2023-05-20T15:34:54;18.40;99.90
29731;DHT22;16639;51.488;0.152;2023-05-20T15:37:22;18.40;99.90
29731;DHT22;16639;51.488;0.152;2023-05-20T15:39:49;18.50;99.90
29731;DHT22;16639;51.488;0.152;2023-05-20T15:42:16;18.50;99.90
29731;DHT22;16639;51.488;0.152;2023-05-20T15:44:44;18.50;99.90
29731;DHT22;16639;51.488;0.152;2023-05-20T15:47:12;18.50;99.90
29731;DHT22;16639;51.488;0.152;2023-05-20T15:49:39;18.40;99.90
29731;DHT22;16639;51.488;0.152;2023-05-20T15:52:07;18.40;99.90